• Join FlightAware (Why Join?)
  • Login
  • US Flag 
11:20PM EST


 

Airport Tracker/Info


-or-


 

Live Flight TrackerFlight Track Log ✈ N77SD ✈ 08-May-2013 ✈ KPGV - KILM

Flight Track Log - Related Links

Times and Time Zones

All times are in EDT time to prevent confusion due to time zone crossing. See the N77SD flight status page for this flight to view local times or setup timezone preferences in your user account.

Time Position Orientation Groundspeed Altitude Reporting Facility
EDT Latitude Longitude Course Direction KTS MPH feet Rate Location/Type
04:53PM 35.5017 -77.4111 193° South 242 278 5,200  Level Washington Center
04:54PM 35.4597 -77.4231 193° South 198 228 7,500 2,168 Climbing Washington Center
04:55PM 35.4178 -77.4372 195° South 168 193 9,500 1,983 Climbing Washington Center
04:56PM 35.3781 -77.4542 199° South 156 180 11,500 1,261 Climbing Washington Center
04:57PM 35.3339 -77.4711 197° South 156 180 12,000 252 Climbing Washington Center
04:58PM 35.2750 -77.4950 198° South 185 213 12,000  Level Washington Center
04:59PM 35.2142 -77.5217 200° South 220 253 12,000  Level Washington Center
05:00PM 35.1533 -77.5456 198° South 231 266 12,000 -202 Level Washington Center
05:01PM 35.0881 -77.5694 197° South 238 274 11,600 -508 Descending Washington Center
05:02PM 35.0250 -77.5958 199° South 243 280 11,000 -298 Descending Washington Center
05:03PM 34.9619 -77.6219 199° South 243 280 11,000 -298 Level Washington Center
05:04PM 34.9011 -77.6458 198° South 243 280 10,400 -893 Descending Washington Center
05:05PM 34.8467 -77.6672 198° South 236 272 9,200 -1,311 Descending Washington Center
05:06PM 34.7961 -77.6889 199° South 216 249 7,800 -1,210 Descending Washington Center
05:07PM 34.7478 -77.7078 198° South 202 232 6,800 -1,091 Descending Washington Center
05:08PM 34.6994 -77.7267 198° South 190 219 5,600 -1,180 Descending Washington Center
05:09PM 34.6511 -77.7431 196° South 185 213 4,400 -857 Descending Washington Center
05:10PM 34.6050 -77.7569 194° South 185 213 3,900 -254 Descending Washington Center
05:11PM 34.5569 -77.7633 186° South 185 213 3,900  Level Washington Center
05:13PM 34.4749 -77.8100 198° South  Level FlightAware Approximate
05:20PM 34.2667 -77.9000 202° Southwest  Level FlightAware Approximate
05:21PM 34.2706 -77.9026 202° Southwest  Level Estimated